sensor_id;sensor_type;location;lat;lon;timestamp;P1;durP1;ratioP1;P2;durP2;ratioP2
63320;SDS011;49449;48.800;9.534;2023-03-08T00:00:30;10.70;;;6.40;;
63320;SDS011;49449;48.800;9.534;2023-03-08T00:02:58;9.45;;;5.25;;
63320;SDS011;49449;48.800;9.534;2023-03-08T00:05:25;11.00;;;6.53;;
63320;SDS011;49449;48.800;9.534;2023-03-08T00:07:53;8.98;;;5.57;;
63320;SDS011;49449;48.800;9.534;2023-03-08T00:10:21;9.48;;;6.35;;
63320;SDS011;49449;48.800;9.534;2023-03-08T00:12:49;8.88;;;7.43;;
63320;SDS011;49449;48.800;9.534;2023-03-08T00:15:17;10.15;;;6.13;;
63320;SDS011;49449;48.800;9.534;2023-03-08T00:17:46;9.10;;;6.03;;
63320;SDS011;49449;48.800;9.534;2023-03-08T00:20:14;8.60;;;5.88;;
63320;SDS011;49449;48.800;9.534;2023-03-08T00:22:42;8.93;;;6.47;;
63320;SDS011;49449;48.800;9.534;2023-03-08T00:25:10;11.48;;;6.63;;
63320;SDS011;49449;48.800;9.534;2023-03-08T00:27:37;10.05;;;6.40;;
63320;SDS011;49449;48.800;9.534;2023-03-08T00:30:06;11.27;;;7.68;;
63320;SDS011;49449;48.800;9.534;2023-03-08T00:32:34;10.48;;;6.07;;
63320;SDS011;49449;48.800;9.534;2023-03-08T00:35:04;9.90;;;7.20;;
63320;SDS011;49449;48.800;9.534;2023-03-08T00:37:32;8.30;;;5.72;;
63320;SDS011;49449;48.800;9.534;2023-03-08T00:40:00;9.57;;;5.97;;
63320;SDS011;49449;48.800;9.534;2023-03-08T00:42:28;10.07;;;6.38;;
63320;SDS011;49449;48.800;9.534;2023-03-08T00:44:55;10.38;;;6.25;;
63320;SDS011;49449;48.800;9.534;2023-03-08T00:47:23;10.70;;;7.07;;
63320;SDS011;49449;48.800;9.534;2023-03-08T00:49:51;8.05;;;6.15;;
63320;SDS011;49449;48.800;9.534;2023-03-08T00:52:20;9.95;;;6.65;;
63320;SDS011;49449;48.800;9.534;2023-03-08T00:54:47;8.60;;;6.00;;
63320;SDS011;49449;48.800;9.534;2023-03-08T00:57:15;9.18;;;5.88;;
63320;SDS011;49449;48.800;9.534;2023-03-08T00:59:43;10.13;;;6.20;;
63320;SDS011;49449;48.800;9.534;2023-03-08T01:02:11;9.20;;;6.68;;
63320;SDS011;49449;48.800;9.534;2023-03-08T01:04:38;11.27;;;6.88;;
63320;SDS011;49449;48.800;9.534;2023-03-08T01:07:06;10.43;;;6.85;;
63320;SDS011;49449;48.800;9.534;2023-03-08T01:09:35;8.13;;;5.50;;
63320;SDS011;49449;48.800;9.534;2023-03-08T01:12:03;9.88;;;6.63;;
63320;SDS011;49449;48.800;9.534;2023-03-08T01:14:31;9.48;;;6.43;;
63320;SDS011;49449;48.800;9.534;2023-03-08T01:16:59;10.55;;;6.65;;
63320;SDS011;49449;48.800;9.534;2023-03-08T01:19:27;10.52;;;6.63;;
63320;SDS011;49449;48.800;9.534;2023-03-08T01:21:54;10.27;;;6.43;;
63320;SDS011;49449;48.800;9.534;2023-03-08T01:24:22;8.52;;;6.30;;
63320;SDS011;49449;48.800;9.534;2023-03-08T01:26:53;9.65;;;6.75;;
63320;SDS011;49449;48.800;9.534;2023-03-08T01:29:24;10.23;;;7.07;;
63320;SDS011;49449;48.800;9.534;2023-03-08T01:31:51;10.02;;;5.85;;
63320;SDS011;49449;48.800;9.534;2023-03-08T01:34:19;8.25;;;5.97;;
63320;SDS011;49449;48.800;9.534;2023-03-08T01:36:47;10.75;;;6.43;;
63320;SDS011;49449;48.800;9.534;2023-03-08T01:39:14;9.75;;;6.78;;
63320;SDS011;49449;48.800;9.534;2023-03-08T01:41:42;12.30;;;7.50;;
63320;SDS011;49449;48.800;9.534;2023-03-08T01:44:13;10.68;;;6.55;;
63320;SDS011;49449;48.800;9.534;2023-03-08T01:46:42;9.73;;;6.70;;
63320;SDS011;49449;48.800;9.534;2023-03-08T01:49:11;8.27;;;6.32;;
63320;SDS011;49449;48.800;9.534;2023-03-08T01:51:41;11.18;;;6.95;;
63320;SDS011;49449;48.800;9.534;2023-03-08T01:56:41;10.93;;;6.35;;
63320;SDS011;49449;48.800;9.534;2023-03-08T01:59:11;9.00;;;5.90;;
63320;SDS011;49449;48.800;9.534;2023-03-08T02:01:40;8.63;;;5.68;;
63320;SDS011;49449;48.800;9.534;2023-03-08T02:04:08;10.93;;;6.03;;
63320;SDS011;49449;48.800;9.534;2023-03-08T02:06:37;7.80;;;5.20;;
63320;SDS011;49449;48.800;9.534;2023-03-08T02:09:05;7.93;;;5.20;;
63320;SDS011;49449;48.800;9.534;2023-03-08T02:11:33;8.05;;;4.97;;
63320;SDS011;49449;48.800;9.534;2023-03-08T02:14:03;8.48;;;5.75;;
63320;SDS011;49449;48.800;9.534;2023-03-08T02:16:30;9.40;;;5.55;;
63320;SDS011;49449;48.800;9.534;2023-03-08T02:19:00;9.38;;;5.47;;
63320;SDS011;49449;48.800;9.534;2023-03-08T02:21:30;9.35;;;5.72;;
63320;SDS011;49449;48.800;9.534;2023-03-08T02:24:03;8.68;;;5.55;;
63320;SDS011;49449;48.800;9.534;2023-03-08T02:26:32;7.63;;;5.32;;
63320;SDS011;49449;48.800;9.534;2023-03-08T02:29:03;9.70;;;5.13;;
63320;SDS011;49449;48.800;9.534;2023-03-08T02:31:30;8.55;;;5.55;;
63320;SDS011;49449;48.800;9.534;2023-03-08T02:33:58;8.80;;;5.20;;
63320;SDS011;49449;48.800;9.534;2023-03-08T02:36:26;10.73;;;5.97;;
63320;SDS011;49449;48.800;9.534;2023-03-08T02:38:53;8.82;;;5.50;;
63320;SDS011;49449;48.800;9.534;2023-03-08T02:41:23;9.30;;;6.05;;
63320;SDS011;49449;48.800;9.534;2023-03-08T02:43:50;8.15;;;5.32;;
63320;SDS011;49449;48.800;9.534;2023-03-08T02:46:18;9.70;;;6.10;;
63320;SDS011;49449;48.800;9.534;2023-03-08T02:48:46;7.80;;;5.25;;
63320;SDS011;49449;48.800;9.534;2023-03-08T02:51:15;9.65;;;5.25;;
63320;SDS011;49449;48.800;9.534;2023-03-08T02:53:43;9.90;;;6.00;;
63320;SDS011;49449;48.800;9.534;2023-03-08T02:56:11;9.27;;;5.40;;
63320;SDS011;49449;48.800;9.534;2023-03-08T02:58:40;8.70;;;5.70;;
63320;SDS011;49449;48.800;9.534;2023-03-08T03:01:09;9.43;;;5.88;;
63320;SDS011;49449;48.800;9.534;2023-03-08T03:03:38;10.15;;;6.88;;
63320;SDS011;49449;48.800;9.534;2023-03-08T03:06:11;7.50;;;4.95;;
63320;SDS011;49449;48.800;9.534;2023-03-08T03:08:39;8.20;;;5.00;;
63320;SDS011;49449;48.800;9.534;2023-03-08T03:11:11;7.75;;;5.10;;
63320;SDS011;49449;48.800;9.534;2023-03-08T03:13:41;8.13;;;5.22;;
63320;SDS011;49449;48.800;9.534;2023-03-08T03:16:09;7.40;;;4.93;;
63320;SDS011;49449;48.800;9.534;2023-03-08T03:18:39;11.05;;;7.10;;
63320;SDS011;49449;48.800;9.534;2023-03-08T03:21:08;7.85;;;5.32;;
63320;SDS011;49449;48.800;9.534;2023-03-08T03:23:37;8.75;;;5.90;;
63320;SDS011;49449;48.800;9.534;2023-03-08T03:26:06;10.13;;;5.60;;
63320;SDS011;49449;48.800;9.534;2023-03-08T03:28:35;9.15;;;5.43;;
63320;SDS011;49449;48.800;9.534;2023-03-08T03:31:06;9.65;;;5.20;;
63320;SDS011;49449;48.800;9.534;2023-03-08T03:33:35;9.20;;;5.50;;
63320;SDS011;49449;48.800;9.534;2023-03-08T03:36:03;8.77;;;5.35;;
63320;SDS011;49449;48.800;9.534;2023-03-08T03:38:31;9.18;;;6.00;;
63320;SDS011;49449;48.800;9.534;2023-03-08T03:40:59;10.23;;;6.72;;
63320;SDS011;49449;48.800;9.534;2023-03-08T03:43:28;8.48;;;5.90;;
63320;SDS011;49449;48.800;9.534;2023-03-08T03:45:56;9.90;;;7.05;;
63320;SDS011;49449;48.800;9.534;2023-03-08T03:48:26;8.93;;;5.50;;
63320;SDS011;49449;48.800;9.534;2023-03-08T03:50:54;8.52;;;5.53;;
63320;SDS011;49449;48.800;9.534;2023-03-08T03:53:23;10.07;;;5.78;;
63320;SDS011;49449;48.800;9.534;2023-03-08T03:55:51;9.45;;;5.57;;
63320;SDS011;49449;48.800;9.534;2023-03-08T03:58:19;8.98;;;5.68;;
63320;SDS011;49449;48.800;9.534;2023-03-08T04:00:47;7.80;;;5.20;;
63320;SDS011;49449;48.800;9.534;2023-03-08T04:03:14;10.38;;;5.70;;
63320;SDS011;49449;48.800;9.534;2023-03-08T04:05:44;8.25;;;5.97;;
63320;SDS011;49449;48.800;9.534;2023-03-08T04:08:11;8.13;;;5.40;;
63320;SDS011;49449;48.800;9.534;2023-03-08T04:10:39;9.15;;;6.28;;
63320;SDS011;49449;48.800;9.534;2023-03-08T04:13:07;8.90;;;6.00;;
63320;SDS011;49449;48.800;9.534;2023-03-08T04:15:36;8.02;;;5.68;;
63320;SDS011;49449;48.800;9.534;2023-03-08T04:18:04;10.90;;;6.60;;
63320;SDS011;49449;48.800;9.534;2023-03-08T04:20:31;9.68;;;5.60;;
63320;SDS011;49449;48.800;9.534;2023-03-08T04:23:00;8.82;;;5.45;;
63320;SDS011;49449;48.800;9.534;2023-03-08T04:25:28;8.43;;;5.32;;
63320;SDS011;49449;48.800;9.534;2023-03-08T04:27:56;8.50;;;5.65;;
63320;SDS011;49449;48.800;9.534;2023-03-08T04:30:23;9.43;;;5.82;;
63320;SDS011;49449;48.800;9.534;2023-03-08T04:32:51;9.23;;;5.72;;
63320;SDS011;49449;48.800;9.534;2023-03-08T04:35:19;9.15;;;5.80;;
63320;SDS011;49449;48.800;9.534;2023-03-08T04:37:48;9.75;;;6.13;;
63320;SDS011;49449;48.800;9.534;2023-03-08T04:40:17;11.52;;;6.78;;
63320;SDS011;49449;48.800;9.534;2023-03-08T04:42:44;10.77;;;6.47;;
63320;SDS011;49449;48.800;9.534;2023-03-08T04:45:12;12.82;;;7.30;;
63320;SDS011;49449;48.800;9.534;2023-03-08T04:47:40;11.02;;;6.88;;
63320;SDS011;49449;48.800;9.534;2023-03-08T04:50:08;11.45;;;7.05;;
63320;SDS011;49449;48.800;9.534;2023-03-08T04:52:37;11.48;;;6.60;;
63320;SDS011;49449;48.800;9.534;2023-03-08T04:55:05;9.85;;;6.45;;
63320;SDS011;49449;48.800;9.534;2023-03-08T04:57:34;10.75;;;6.45;;
63320;SDS011;49449;48.800;9.534;2023-03-08T05:00:02;11.48;;;5.95;;
63320;SDS011;49449;48.800;9.534;2023-03-08T05:02:31;10.75;;;6.63;;
63320;SDS011;49449;48.800;9.534;2023-03-08T05:04:59;10.63;;;6.13;;
63320;SDS011;49449;48.800;9.534;2023-03-08T05:07:26;9.63;;;6.15;;
63320;SDS011;49449;48.800;9.534;2023-03-08T05:09:54;9.82;;;6.13;;
63320;SDS011;49449;48.800;9.534;2023-03-08T05:12:22;9.32;;;6.10;;
63320;SDS011;49449;48.800;9.534;2023-03-08T05:14:51;10.27;;;6.55;;
63320;SDS011;49449;48.800;9.534;2023-03-08T05:17:19;11.07;;;6.90;;
63320;SDS011;49449;48.800;9.534;2023-03-08T05:19:46;10.80;;;6.00;;
63320;SDS011;49449;48.800;9.534;2023-03-08T05:22:14;9.57;;;5.22;;
63320;SDS011;49449;48.800;9.534;2023-03-08T05:24:42;9.25;;;6.32;;
63320;SDS011;49449;48.800;9.534;2023-03-08T05:27:11;9.88;;;6.22;;
63320;SDS011;49449;48.800;9.534;2023-03-08T05:29:39;10.85;;;6.68;;
63320;SDS011;49449;48.800;9.534;2023-03-08T05:32:10;10.15;;;7.15;;
63320;SDS011;49449;48.800;9.534;2023-03-08T05:34:38;9.70;;;6.93;;
63320;SDS011;49449;48.800;9.534;2023-03-08T05:37:06;10.15;;;6.47;;
63320;SDS011;49449;48.800;9.534;2023-03-08T05:39:34;9.48;;;6.20;;
63320;SDS011;49449;48.800;9.534;2023-03-08T05:42:01;9.02;;;5.93;;
63320;SDS011;49449;48.800;9.534;2023-03-08T05:44:29;12.40;;;7.03;;
63320;SDS011;49449;48.800;9.534;2023-03-08T05:46:57;9.07;;;6.00;;
63320;SDS011;49449;48.800;9.534;2023-03-08T05:49:26;9.65;;;6.28;;
63320;SDS011;49449;48.800;9.534;2023-03-08T05:51:53;8.60;;;6.32;;
63320;SDS011;49449;48.800;9.534;2023-03-08T05:54:21;9.63;;;6.05;;
63320;SDS011;49449;48.800;9.534;2023-03-08T05:56:49;10.50;;;6.75;;
63320;SDS011;49449;48.800;9.534;2023-03-08T05:59:17;9.20;;;6.20;;
63320;SDS011;49449;48.800;9.534;2023-03-08T06:01:45;9.25;;;5.95;;
63320;SDS011;49449;48.800;9.534;2023-03-08T06:04:13;8.38;;;5.30;;
63320;SDS011;49449;48.800;9.534;2023-03-08T06:06:42;9.85;;;5.47;;
63320;SDS011;49449;48.800;9.534;2023-03-08T06:09:09;13.25;;;6.72;;
63320;SDS011;49449;48.800;9.534;2023-03-08T06:11:37;8.98;;;5.75;;
63320;SDS011;49449;48.800;9.534;2023-03-08T06:14:05;7.57;;;5.60;;
63320;SDS011;49449;48.800;9.534;2023-03-08T06:16:33;9.52;;;5.40;;
63320;SDS011;49449;48.800;9.534;2023-03-08T06:19:01;8.95;;;5.82;;
63320;SDS011;49449;48.800;9.534;2023-03-08T06:21:29;10.15;;;6.13;;
63320;SDS011;49449;48.800;9.534;2023-03-08T06:23:58;10.52;;;6.35;;
63320;SDS011;49449;48.800;9.534;2023-03-08T06:26:25;9.30;;;6.60;;
63320;SDS011;49449;48.800;9.534;2023-03-08T06:28:53;8.48;;;5.70;;
63320;SDS011;49449;48.800;9.534;2023-03-08T06:31:21;8.75;;;5.90;;
63320;SDS011;49449;48.800;9.534;2023-03-08T06:33:49;10.23;;;7.15;;
63320;SDS011;49449;48.800;9.534;2023-03-08T06:36:17;8.15;;;5.75;;
63320;SDS011;49449;48.800;9.534;2023-03-08T06:38:46;10.32;;;7.05;;
63320;SDS011;49449;48.800;9.534;2023-03-08T06:41:16;10.38;;;6.72;;
63320;SDS011;49449;48.800;9.534;2023-03-08T06:43:45;9.80;;;6.35;;
63320;SDS011;49449;48.800;9.534;2023-03-08T06:46:14;9.98;;;6.28;;
63320;SDS011;49449;48.800;9.534;2023-03-08T06:48:44;9.93;;;5.95;;
63320;SDS011;49449;48.800;9.534;2023-03-08T06:51:12;10.02;;;6.07;;
63320;SDS011;49449;48.800;9.534;2023-03-08T06:53:40;10.75;;;6.68;;
63320;SDS011;49449;48.800;9.534;2023-03-08T06:56:08;8.68;;;5.75;;
63320;SDS011;49449;48.800;9.534;2023-03-08T06:58:40;9.15;;;6.05;;
63320;SDS011;49449;48.800;9.534;2023-03-08T07:01:09;11.55;;;6.35;;
63320;SDS011;49449;48.800;9.534;2023-03-08T07:03:39;15.27;;;8.93;;
63320;SDS011;49449;48.800;9.534;2023-03-08T07:06:08;15.95;;;9.30;;
63320;SDS011;49449;48.800;9.534;2023-03-08T07:08:36;14.43;;;9.27;;
63320;SDS011;49449;48.800;9.534;2023-03-08T07:11:05;14.90;;;9.07;;
63320;SDS011;49449;48.800;9.534;2023-03-08T07:13:34;35.25;;;18.80;;
63320;SDS011;49449;48.800;9.534;2023-03-08T07:16:05;23.08;;;13.27;;
63320;SDS011;49449;48.800;9.534;2023-03-08T07:18:34;18.63;;;11.68;;
63320;SDS011;49449;48.800;9.534;2023-03-08T07:21:02;12.98;;;7.75;;
63320;SDS011;49449;48.800;9.534;2023-03-08T07:23:30;11.65;;;7.78;;
63320;SDS011;49449;48.800;9.534;2023-03-08T07:25:58;17.05;;;10.38;;
63320;SDS011;49449;48.800;9.534;2023-03-08T07:28:26;12.40;;;8.60;;
63320;SDS011;49449;48.800;9.534;2023-03-08T07:30:53;11.90;;;7.43;;
63320;SDS011;49449;48.800;9.534;2023-03-08T07:33:22;14.10;;;9.02;;
63320;SDS011;49449;48.800;9.534;2023-03-08T07:35:50;13.70;;;8.98;;
63320;SDS011;49449;48.800;9.534;2023-03-08T07:38:18;14.82;;;8.80;;
63320;SDS011;49449;48.800;9.534;2023-03-08T07:40:52;13.43;;;9.15;;
63320;SDS011;49449;48.800;9.534;2023-03-08T07:43:21;11.63;;;8.90;;
63320;SDS011;49449;48.800;9.534;2023-03-08T07:45:49;11.77;;;8.00;;
63320;SDS011;49449;48.800;9.534;2023-03-08T07:48:16;13.90;;;10.43;;
63320;SDS011;49449;48.800;9.534;2023-03-08T07:50:45;15.30;;;10.55;;
63320;SDS011;49449;48.800;9.534;2023-03-08T07:53:14;12.82;;;8.52;;
63320;SDS011;49449;48.800;9.534;2023-03-08T07:55:41;11.98;;;8.25;;
63320;SDS011;49449;48.800;9.534;2023-03-08T07:58:09;11.15;;;8.07;;
63320;SDS011;49449;48.800;9.534;2023-03-08T08:00:37;12.15;;;7.65;;
63320;SDS011;49449;48.800;9.534;2023-03-08T08:03:04;10.82;;;7.97;;
63320;SDS011;49449;48.800;9.534;2023-03-08T08:05:33;13.77;;;8.85;;
63320;SDS011;49449;48.800;9.534;2023-03-08T08:08:03;13.27;;;8.55;;
63320;SDS011;49449;48.800;9.534;2023-03-08T08:10:30;14.63;;;9.35;;
63320;SDS011;49449;48.800;9.534;2023-03-08T08:13:00;13.02;;;8.70;;
63320;SDS011;49449;48.800;9.534;2023-03-08T08:15:28;12.77;;;8.48;;
63320;SDS011;49449;48.800;9.534;2023-03-08T08:17:56;13.68;;;9.20;;
63320;SDS011;49449;48.800;9.534;2023-03-08T08:20:23;15.07;;;9.55;;
63320;SDS011;49449;48.800;9.534;2023-03-08T08:22:52;16.17;;;10.65;;
63320;SDS011;49449;48.800;9.534;2023-03-08T08:25:21;14.85;;;9.98;;
63320;SDS011;49449;48.800;9.534;2023-03-08T08:27:48;11.85;;;8.68;;
63320;SDS011;49449;48.800;9.534;2023-03-08T08:30:17;15.00;;;9.90;;
63320;SDS011;49449;48.800;9.534;2023-03-08T08:32:44;13.18;;;9.13;;
63320;SDS011;49449;48.800;9.534;2023-03-08T08:35:12;10.95;;;7.88;;
63320;SDS011;49449;48.800;9.534;2023-03-08T08:37:40;12.65;;;8.30;;
63320;SDS011;49449;48.800;9.534;2023-03-08T08:40:08;15.10;;;10.35;;
63320;SDS011;49449;48.800;9.534;2023-03-08T08:42:38;14.00;;;8.45;;
63320;SDS011;49449;48.800;9.534;2023-03-08T08:45:07;12.68;;;8.15;;
63320;SDS011;49449;48.800;9.534;2023-03-08T08:47:35;14.43;;;9.88;;
63320;SDS011;49449;48.800;9.534;2023-03-08T08:50:03;12.57;;;8.43;;
63320;SDS011;49449;48.800;9.534;2023-03-08T08:52:31;13.07;;;9.32;;
63320;SDS011;49449;48.800;9.534;2023-03-08T08:54:59;16.35;;;10.55;;
63320;SDS011;49449;48.800;9.534;2023-03-08T08:57:27;12.35;;;8.98;;
63320;SDS011;49449;48.800;9.534;2023-03-08T08:59:56;13.90;;;8.90;;
63320;SDS011;49449;48.800;9.534;2023-03-08T09:02:24;14.25;;;8.65;;
63320;SDS011;49449;48.800;9.534;2023-03-08T09:04:51;14.43;;;9.32;;
63320;SDS011;49449;48.800;9.534;2023-03-08T09:07:19;15.98;;;9.77;;
63320;SDS011;49449;48.800;9.534;2023-03-08T09:09:47;16.05;;;10.43;;
63320;SDS011;49449;48.800;9.534;2023-03-08T09:12:15;13.63;;;9.35;;
63320;SDS011;49449;48.800;9.534;2023-03-08T09:14:42;14.32;;;8.80;;
63320;SDS011;49449;48.800;9.534;2023-03-08T09:17:11;13.27;;;8.82;;
63320;SDS011;49449;48.800;9.534;2023-03-08T09:19:39;11.73;;;9.10;;
63320;SDS011;49449;48.800;9.534;2023-03-08T09:22:08;14.85;;;9.57;;
63320;SDS011;49449;48.800;9.534;2023-03-08T09:24:35;15.35;;;10.05;;
63320;SDS011;49449;48.800;9.534;2023-03-08T09:27:03;14.68;;;9.90;;
63320;SDS011;49449;48.800;9.534;2023-03-08T09:29:32;17.85;;;15.43;;
63320;SDS011;49449;48.800;9.534;2023-03-08T09:32:01;13.65;;;10.75;;
63320;SDS011;49449;48.800;9.534;2023-03-08T09:34:31;15.00;;;10.93;;
63320;SDS011;49449;48.800;9.534;2023-03-08T09:36:58;17.13;;;10.55;;
63320;SDS011;49449;48.800;9.534;2023-03-08T09:39:26;14.70;;;9.85;;
63320;SDS011;49449;48.800;9.534;2023-03-08T09:41:54;13.25;;;9.45;;
63320;SDS011;49449;48.800;9.534;2023-03-08T09:44:31;15.93;;;10.32;;
63320;SDS011;49449;48.800;9.534;2023-03-08T09:47:12;14.10;;;10.10;;
63320;SDS011;49449;48.800;9.534;2023-03-08T09:49:52;16.92;;;10.65;;
63320;SDS011;49449;48.800;9.534;2023-03-08T09:52:24;15.57;;;10.13;;
63320;SDS011;49449;48.800;9.534;2023-03-08T09:54:58;13.75;;;9.73;;
63320;SDS011;49449;48.800;9.534;2023-03-08T09:57:29;17.42;;;11.07;;
63320;SDS011;49449;48.800;9.534;2023-03-08T10:00:02;15.43;;;10.52;;
63320;SDS011;49449;48.800;9.534;2023-03-08T10:02:35;11.30;;;8.15;;
63320;SDS011;49449;48.800;9.534;2023-03-08T10:05:16;16.20;;;10.45;;
63320;SDS011;49449;48.800;9.534;2023-03-08T10:07:50;17.52;;;11.13;;
63320;SDS011;49449;48.800;9.534;2023-03-08T10:10:27;14.07;;;9.57;;
63320;SDS011;49449;48.800;9.534;2023-03-08T10:13:05;15.20;;;9.40;;
63320;SDS011;49449;48.800;9.534;2023-03-08T10:15:46;15.25;;;9.55;;
63320;SDS011;49449;48.800;9.534;2023-03-08T10:18:18;15.50;;;9.18;;
63320;SDS011;49449;48.800;9.534;2023-03-08T10:20:58;14.43;;;9.15;;
63320;SDS011;49449;48.800;9.534;2023-03-08T10:23:28;16.75;;;10.60;;
63320;SDS011;49449;48.800;9.534;2023-03-08T10:25:57;16.45;;;11.45;;
63320;SDS011;49449;48.800;9.534;2023-03-08T10:28:27;14.93;;;9.35;;
63320;SDS011;49449;48.800;9.534;2023-03-08T10:30:55;14.68;;;9.23;;
63320;SDS011;49449;48.800;9.534;2023-03-08T10:33:28;13.73;;;9.85;;
63320;SDS011;49449;48.800;9.534;2023-03-08T10:36:00;14.20;;;9.63;;
63320;SDS011;49449;48.800;9.534;2023-03-08T10:38:33;15.00;;;10.15;;
63320;SDS011;49449;48.800;9.534;2023-03-08T10:41:02;18.05;;;12.48;;
63320;SDS011;49449;48.800;9.534;2023-03-08T10:43:33;15.88;;;9.70;;
63320;SDS011;49449;48.800;9.534;2023-03-08T10:46:09;14.07;;;8.82;;
63320;SDS011;49449;48.800;9.534;2023-03-08T10:48:39;14.63;;;9.43;;
63320;SDS011;49449;48.800;9.534;2023-03-08T10:51:15;12.38;;;8.48;;
63320;SDS011;49449;48.800;9.534;2023-03-08T10:56:21;9.65;;;6.55;;
63320;SDS011;49449;48.800;9.534;2023-03-08T10:58:55;7.68;;;5.03;;
63320;SDS011;49449;48.800;9.534;2023-03-08T11:01:25;6.72;;;4.78;;
63320;SDS011;49449;48.800;9.534;2023-03-08T11:03:58;7.60;;;4.95;;
63320;SDS011;49449;48.800;9.534;2023-03-08T11:06:29;6.40;;;4.30;;
63320;SDS011;49449;48.800;9.534;2023-03-08T11:08:57;7.22;;;5.10;;
63320;SDS011;49449;48.800;9.534;2023-03-08T11:11:38;5.68;;;4.03;;
63320;SDS011;49449;48.800;9.534;2023-03-08T11:14:07;5.75;;;3.90;;
63320;SDS011;49449;48.800;9.534;2023-03-08T11:16:40;7.20;;;4.93;;
63320;SDS011;49449;48.800;9.534;2023-03-08T11:19:25;6.88;;;4.85;;
63320;SDS011;49449;48.800;9.534;2023-03-08T11:22:02;7.57;;;4.68;;
63320;SDS011;49449;48.800;9.534;2023-03-08T11:24:51;6.18;;;4.15;;
63320;SDS011;49449;48.800;9.534;2023-03-08T11:27:36;6.85;;;4.82;;
63320;SDS011;49449;48.800;9.534;2023-03-08T11:30:16;7.55;;;5.35;;
63320;SDS011;49449;48.800;9.534;2023-03-08T11:32:57;7.00;;;3.60;;
63320;SDS011;49449;48.800;9.534;2023-03-08T11:35:33;5.55;;;3.35;;
63320;SDS011;49449;48.800;9.534;2023-03-08T11:38:11;4.65;;;2.58;;
63320;SDS011;49449;48.800;9.534;2023-03-08T11:40:47;3.55;;;3.08;;
63320;SDS011;49449;48.800;9.534;2023-03-08T11:43:28;4.18;;;2.42;;
63320;SDS011;49449;48.800;9.534;2023-03-08T11:46:05;3.22;;;2.40;;
63320;SDS011;49449;48.800;9.534;2023-03-08T11:48:56;2.95;;;2.45;;
63320;SDS011;49449;48.800;9.534;2023-03-08T11:51:38;3.13;;;2.30;;
63320;SDS011;49449;48.800;9.534;2023-03-08T11:54:14;3.17;;;2.17;;
63320;SDS011;49449;48.800;9.534;2023-03-08T11:56:46;3.72;;;2.47;;
63320;SDS011;49449;48.800;9.534;2023-03-08T11:59:18;2.60;;;2.40;;
63320;SDS011;49449;48.800;9.534;2023-03-08T12:01:53;2.92;;;2.42;;
63320;SDS011;49449;48.800;9.534;2023-03-08T12:04:29;2.40;;;2.20;;
63320;SDS011;49449;48.800;9.534;2023-03-08T12:07:03;1.42;;;1.33;;
63320;SDS011;49449;48.800;9.534;2023-03-08T12:09:37;1.40;;;1.30;;
63320;SDS011;49449;48.800;9.534;2023-03-08T12:12:10;1.38;;;1.27;;
63320;SDS011;49449;48.800;9.534;2023-03-08T12:14:46;1.77;;;1.20;;
63320;SDS011;49449;48.800;9.534;2023-03-08T12:17:19;1.02;;;1.02;;
63320;SDS011;49449;48.800;9.534;2023-03-08T12:19:51;0.73;;;0.70;;
63320;SDS011;49449;48.800;9.534;2023-03-08T12:22:25;0.82;;;0.82;;
63320;SDS011;49449;48.800;9.534;2023-03-08T12:25:03;1.15;;;1.00;;
63320;SDS011;49449;48.800;9.534;2023-03-08T12:27:37;1.15;;;0.90;;
63320;SDS011;49449;48.800;9.534;2023-03-08T12:30:15;1.95;;;1.20;;
63320;SDS011;49449;48.800;9.534;2023-03-08T12:32:49;1.63;;;0.85;;
63320;SDS011;49449;48.800;9.534;2023-03-08T12:35:23;1.70;;;0.80;;
63320;SDS011;49449;48.800;9.534;2023-03-08T12:37:54;1.42;;;1.33;;
63320;SDS011;49449;48.800;9.534;2023-03-08T12:40:28;2.00;;;1.23;;
63320;SDS011;49449;48.800;9.534;2023-03-08T12:43:05;0.90;;;0.90;;
63320;SDS011;49449;48.800;9.534;2023-03-08T12:45:36;2.60;;;0.85;;
63320;SDS011;49449;48.800;9.534;2023-03-08T12:48:08;1.58;;;1.00;;
63320;SDS011;49449;48.800;9.534;2023-03-08T12:50:53;0.82;;;0.80;;
63320;SDS011;49449;48.800;9.534;2023-03-08T12:53:34;1.38;;;1.35;;
63320;SDS011;49449;48.800;9.534;2023-03-08T12:56:22;2.72;;;0.98;;
63320;SDS011;49449;48.800;9.534;2023-03-08T12:58:55;1.25;;;1.15;;
63320;SDS011;49449;48.800;9.534;2023-03-08T13:01:29;0.60;;;0.60;;
63320;SDS011;49449;48.800;9.534;2023-03-08T13:04:03;1.20;;;1.10;;
63320;SDS011;49449;48.800;9.534;2023-03-08T13:06:47;0.80;;;0.80;;
63320;SDS011;49449;48.800;9.534;2023-03-08T13:09:36;0.70;;;0.70;;
63320;SDS011;49449;48.800;9.534;2023-03-08T13:12:24;1.50;;;1.40;;
63320;SDS011;49449;48.800;9.534;2023-03-08T13:15:00;1.50;;;0.80;;
63320;SDS011;49449;48.800;9.534;2023-03-08T13:17:37;1.65;;;0.85;;
63320;SDS011;49449;48.800;9.534;2023-03-08T13:20:10;1.45;;;1.35;;
63320;SDS011;49449;48.800;9.534;2023-03-08T13:22:45;0.90;;;0.90;;
63320;SDS011;49449;48.800;9.534;2023-03-08T13:25:39;1.00;;;1.00;;
63320;SDS011;49449;48.800;9.534;2023-03-08T13:28:18;2.20;;;1.25;;
63320;SDS011;49449;48.800;9.534;2023-03-08T13:30:48;1.10;;;1.10;;
63320;SDS011;49449;48.800;9.534;2023-03-08T13:33:18;1.95;;;1.85;;
63320;SDS011;49449;48.800;9.534;2023-03-08T13:35:56;0.90;;;0.90;;
63320;SDS011;49449;48.800;9.534;2023-03-08T13:38:26;1.52;;;1.38;;
63320;SDS011;49449;48.800;9.534;2023-03-08T13:40:55;1.80;;;1.20;;
63320;SDS011;49449;48.800;9.534;2023-03-08T13:43:26;1.55;;;1.45;;
63320;SDS011;49449;48.800;9.534;2023-03-08T13:45:57;0.70;;;0.70;;
63320;SDS011;49449;48.800;9.534;2023-03-08T13:48:27;0.77;;;0.77;;
63320;SDS011;49449;48.800;9.534;2023-03-08T13:50:56;0.90;;;0.90;;
63320;SDS011;49449;48.800;9.534;2023-03-08T13:53:26;1.45;;;1.45;;
63320;SDS011;49449;48.800;9.534;2023-03-08T13:58:31;1.08;;;0.90;;
63320;SDS011;49449;48.800;9.534;2023-03-08T14:01:02;0.63;;;0.63;;
63320;SDS011;49449;48.800;9.534;2023-03-08T14:03:36;0.85;;;0.85;;
63320;SDS011;49449;48.800;9.534;2023-03-08T14:06:12;0.88;;;0.80;;
63320;SDS011;49449;48.800;9.534;2023-03-08T14:08:44;0.90;;;0.90;;
63320;SDS011;49449;48.800;9.534;2023-03-08T14:11:14;0.82;;;0.80;;
63320;SDS011;49449;48.800;9.534;2023-03-08T14:13:45;0.95;;;0.95;;
63320;SDS011;49449;48.800;9.534;2023-03-08T14:16:23;0.75;;;0.75;;
63320;SDS011;49449;48.800;9.534;2023-03-08T14:18:53;1.27;;;1.27;;
63320;SDS011;49449;48.800;9.534;2023-03-08T14:21:23;1.10;;;1.10;;
63320;SDS011;49449;48.800;9.534;2023-03-08T14:23:53;0.60;;;0.60;;
63320;SDS011;49449;48.800;9.534;2023-03-08T14:26:24;0.93;;;0.80;;
63320;SDS011;49449;48.800;9.534;2023-03-08T14:29:05;0.60;;;0.60;;
63320;SDS011;49449;48.800;9.534;2023-03-08T14:31:37;1.08;;;1.08;;
63320;SDS011;49449;48.800;9.534;2023-03-08T14:34:15;0.93;;;0.80;;
63320;SDS011;49449;48.800;9.534;2023-03-08T14:36:47;0.73;;;0.60;;
63320;SDS011;49449;48.800;9.534;2023-03-08T14:39:19;1.08;;;0.82;;
63320;SDS011;49449;48.800;9.534;2023-03-08T14:41:49;1.30;;;1.30;;
63320;SDS011;49449;48.800;9.534;2023-03-08T14:44:19;0.82;;;0.82;;
63320;SDS011;49449;48.800;9.534;2023-03-08T14:46:48;0.98;;;0.98;;
63320;SDS011;49449;48.800;9.534;2023-03-08T14:49:24;1.00;;;1.00;;
63320;SDS011;49449;48.800;9.534;2023-03-08T14:51:53;1.63;;;0.68;;
63320;SDS011;49449;48.800;9.534;2023-03-08T14:54:23;0.70;;;0.70;;
63320;SDS011;49449;48.800;9.534;2023-03-08T14:56:57;0.75;;;0.75;;
63320;SDS011;49449;48.800;9.534;2023-03-08T14:59:26;1.00;;;1.00;;
63320;SDS011;49449;48.800;9.534;2023-03-08T15:01:54;0.60;;;0.60;;
63320;SDS011;49449;48.800;9.534;2023-03-08T15:04:22;1.48;;;0.75;;
63320;SDS011;49449;48.800;9.534;2023-03-08T15:06:51;0.70;;;0.70;;